Time;durP1;ratioP1;P1;durP2;ratioP2;P2;SDS_P1;SDS_P2;PMS_P1;PMS_P2;Temp;Humidity;BMP_temperature;BMP_pressure;BME280_temperature;BME280_humidity;BME280_pressure;Samples;Min_cycle;Max_cycle;Signal;HPM_P1;HPM_P2
2022/09/03 00:00:55;;;;;;;9.85;7.05;;;;;;;16.33;100.00;93098.16;5090655;28;20040;-72
2022/09/03 00:03:27;;;;;;;10.70;6.65;;;;;;;16.34;100.00;93103.09;5090603;28;20407;-72
2022/09/03 00:06:03;;;;;;;10.98;5.78;;;;;;;16.40;100.00;93098.72;5090114;28;20461;-72
2022/09/03 00:08:35;;;;;;;8.52;5.70;;;;;;;16.37;100.00;93107.00;5090277;28;20051;-72
2022/09/03 00:11:08;;;;;;;9.80;6.43;;;;;;;16.47;100.00;93109.66;5090147;28;20040;-72
2022/09/03 00:13:39;;;;;;;8.02;5.63;;;;;;;16.50;100.00;93104.00;5090250;28;20081;-72
2022/09/03 00:16:11;;;;;;;8.88;6.05;;;;;;;16.50;100.00;93100.59;5090065;28;20085;-72
2022/09/03 00:18:44;;;;;;;10.27;6.32;;;;;;;16.28;100.00;93104.88;5090011;28;20385;-72
2022/09/03 00:21:15;;;;;;;8.77;6.43;;;;;;;16.16;100.00;93102.44;5090149;28;20048;-72
2022/09/03 00:23:44;;;;;;;10.77;6.75;;;;;;;16.03;100.00;93084.72;5090223;28;20051;-72
2022/09/03 00:26:21;;;;;;;8.55;6.65;;;;;;;16.16;100.00;93079.13;5090208;28;20040;-71
2022/09/03 00:28:58;;;;;;;11.05;7.10;;;;;;;16.19;100.00;93077.06;5090084;28;20122;-72
2022/09/03 00:31:30;;;;;;;10.10;7.00;;;;;;;16.27;100.00;93069.63;5089754;28;20050;-72
2022/09/03 00:34:02;;;;;;;8.48;6.38;;;;;;;16.36;100.00;93080.31;5089366;28;20055;-72
2022/09/03 00:36:35;;;;;;;9.50;6.78;;;;;;;16.38;100.00;93072.28;5090342;28;20094;-72
2022/09/03 00:39:02;;;;;;;9.95;6.78;;;;;;;16.46;100.00;93066.63;5089714;28;20044;-72
2022/09/03 00:41:37;;;;;;;10.15;6.30;;;;;;;16.50;100.00;93069.50;5089971;28;21089;-72
2022/09/03 00:44:27;;;;;;;12.60;7.43;;;;;;;16.45;100.00;93067.66;5087858;28;20049;-72
2022/09/03 00:47:00;;;;;;;10.55;7.00;;;;;;;16.56;100.00;93068.50;5089655;28;20515;-72
2022/09/03 00:49:43;;;;;;;9.73;6.80;;;;;;;16.63;100.00;93068.28;5089686;28;20040;-72
2022/09/03 00:52:18;;;;;;;9.20;6.43;;;;;;;16.49;100.00;93047.19;5089863;28;20044;-72
2022/09/03 00:54:58;;;;;;;8.90;6.75;;;;;;;16.75;100.00;93075.88;5089624;28;20105;-72
2022/09/03 00:57:36;;;;;;;9.45;6.68;;;;;;;16.78;100.00;93065.00;5089499;28;20104;-72
2022/09/03 01:00:08;;;;;;;10.35;7.25;;;;;;;16.80;100.00;93074.09;5089277;28;20492;-72
2022/09/03 01:02:46;;;;;;;8.23;6.68;;;;;;;16.82;100.00;93076.44;5089306;28;20040;-72
2022/09/03 01:05:26;;;;;;;11.48;6.63;;;;;;;16.76;100.00;93087.81;5089508;28;20405;-72
2022/09/03 01:08:04;;;;;;;9.48;6.60;;;;;;;16.70;100.00;93076.63;5089069;28;20131;-72
2022/09/03 01:10:43;;;;;;;10.68;6.53;;;;;;;16.62;100.00;93093.44;5089385;28;20541;-72
2022/09/03 01:13:18;;;;;;;9.63;7.40;;;;;;;16.43;100.00;93099.00;5089067;28;21076;-72
2022/09/03 01:15:57;;;;;;;10.70;7.13;;;;;;;16.38;100.00;93101.56;5089298;28;20035;-72
2022/09/03 01:18:32;;;;;;;11.25;6.78;;;;;;;16.39;100.00;93107.53;5089268;28;20040;-72
2022/09/03 01:21:19;;;;;;;10.02;6.57;;;;;;;16.40;100.00;93107.28;5089144;28;20601;-72
2022/09/03 01:24:11;;;;;;;12.65;7.35;;;;;;;16.27;100.00;93098.13;5088842;28;20044;-72
2022/09/03 01:27:04;;;;;;;9.70;6.55;;;;;;;16.19;100.00;93113.34;5089066;28;20123;-72
2022/09/03 01:29:37;;;;;;;8.55;6.20;;;;;;;16.30;100.00;93123.53;5089164;28;21007;-72
2022/09/03 01:32:14;;;;;;;7.82;6.07;;;;;;;16.36;100.00;93126.97;5088874;28;20074;-72
2022/09/03 01:34:54;;;;;;;8.90;5.85;;;;;;;16.33;100.00;93121.50;5088156;28;20048;-72
2022/09/03 01:37:31;;;;;;;8.07;6.60;;;;;;;16.16;100.00;93133.53;5088896;28;20147;-72
2022/09/03 01:40:11;;;;;;;8.68;5.90;;;;;;;16.19;100.00;93126.31;5088750;28;20051;-72
2022/09/03 01:42:53;;;;;;;7.78;5.97;;;;;;;16.34;100.00;93151.56;5088805;28;20094;-71
2022/09/03 01:45:43;;;;;;;8.30;5.90;;;;;;;16.32;100.00;93135.47;5089027;28;20046;-72
2022/09/03 01:48:29;;;;;;;8.95;6.47;;;;;;;16.34;100.00;93141.97;5088746;28;20048;-72
2022/09/03 01:51:03;;;;;;;7.35;5.78;;;;;;;16.33;100.00;93134.47;5088826;28;20063;-72
2022/09/03 01:53:53;;;;;;;8.52;6.35;;;;;;;16.32;100.00;93144.03;5088645;28;20044;-71
2022/09/03 01:56:35;;;;;;;8.70;6.28;;;;;;;16.29;100.00;93145.31;5088988;28;20048;-72
2022/09/03 01:59:07;;;;;;;6.38;5.13;;;;;;;16.08;100.00;93143.56;5088906;28;20094;-72
2022/09/03 02:01:43;;;;;;;7.97;5.43;;;;;;;15.99;100.00;93140.63;5088487;28;20106;-72
2022/09/03 02:04:19;;;;;;;7.70;5.50;;;;;;;15.82;100.00;93107.00;5088648;28;20062;-72
2022/09/03 02:06:47;;;;;;;7.40;5.32;;;;;;;15.74;100.00;93137.50;5088789;28;20054;-72
2022/09/03 02:09:14;;;;;;;7.88;6.15;;;;;;;15.76;100.00;93135.47;5088374;28;20052;-72
2022/09/03 02:11:45;;;;;;;8.10;6.07;;;;;;;15.83;100.00;93140.44;5088803;28;20044;-71
2022/09/03 02:14:12;;;;;;;7.95;5.80;;;;;;;15.79;100.00;93133.41;5088788;28;20052;-71
2022/09/03 02:16:43;;;;;;;9.10;6.25;;;;;;;15.91;100.00;93136.63;5088306;28;20090;-72
2022/09/03 02:19:14;;;;;;;10.00;6.50;;;;;;;15.69;100.00;93129.69;5088563;28;20051;-72
2022/09/03 02:21:47;;;;;;;9.38;6.65;;;;;;;15.50;100.00;93126.63;5088630;28;20044;-72
2022/09/03 02:24:14;;;;;;;9.45;7.22;;;;;;;15.49;100.00;93130.25;5088895;28;20051;-71
2022/09/03 02:26:41;;;;;;;9.93;6.70;;;;;;;15.66;100.00;93137.97;5088825;28;20571;-71
2022/09/03 02:29:07;;;;;;;10.07;6.70;;;;;;;15.70;100.00;93135.66;5088792;28;20450;-72
2022/09/03 02:31:34;;;;;;;10.40;6.90;;;;;;;15.86;100.00;93126.22;5088162;28;20571;-72
2022/09/03 02:34:02;;;;;;;8.80;6.72;;;;;;;15.95;100.00;93126.59;5088430;28;20048;-72
2022/09/03 02:36:32;;;;;;;8.20;6.00;;;;;;;16.05;100.00;93137.06;5088446;28;20063;-72
2022/09/03 02:38:59;;;;;;;7.47;6.05;;;;;;;16.12;100.00;93134.28;5088350;28;20048;-72
2022/09/03 02:41:26;;;;;;;8.38;5.88;;;;;;;16.13;100.00;93136.63;5088502;28;20035;-72
2022/09/03 02:43:58;;;;;;;7.93;5.70;;;;;;;16.15;100.00;93144.13;5088212;28;20048;-72
2022/09/03 02:46:32;;;;;;;7.80;5.88;;;;;;;16.15;100.00;93152.69;5090680;28;20089;-71
2022/09/03 02:48:59;;;;;;;8.07;5.97;;;;;;;16.26;100.00;93150.97;5091931;28;20447;-72
2022/09/03 02:51:31;;;;;;;6.55;5.60;;;;;;;16.18;100.00;93148.84;5091830;28;20043;-72
2022/09/03 02:53:58;;;;;;;8.20;5.90;;;;;;;15.97;100.00;93134.94;5091629;28;20047;-71
2022/09/03 02:56:26;;;;;;;7.53;5.65;;;;;;;16.13;100.00;93147.00;5089558;28;20051;-72
2022/09/03 02:58:53;;;;;;;8.80;6.65;;;;;;;16.13;100.00;93141.81;5089809;28;20552;-72
2022/09/03 03:01:20;;;;;;;8.73;6.32;;;;;;;16.27;100.00;93146.59;5090656;28;20094;-72
2022/09/03 03:03:47;;;;;;;10.55;7.10;;;;;;;16.33;100.00;93152.59;5091609;28;20048;-73
2022/09/03 03:06:14;;;;;;;9.75;6.22;;;;;;;16.35;100.00;93151.31;5091907;28;20048;-73
2022/09/03 03:08:43;;;;;;;7.70;5.63;;;;;;;16.29;100.00;93147.91;5091689;28;20054;-73
2022/09/03 03:11:10;;;;;;;8.95;6.55;;;;;;;16.35;100.00;93148.75;5091563;28;20093;-72
2022/09/03 03:13:37;;;;;;;10.55;6.28;;;;;;;16.39;100.00;93139.41;5091370;28;20415;-72
2022/09/03 03:16:09;;;;;;;7.32;6.07;;;;;;;16.45;100.00;93142.06;5092214;28;20040;-73
2022/09/03 03:18:36;;;;;;;7.68;5.70;;;;;;;16.44;100.00;93138.69;5092026;28;20113;-72
2022/09/03 03:21:07;;;;;;;7.50;5.25;;;;;;;16.47;100.00;93132.22;5091441;28;20036;-72
2022/09/03 03:23:34;;;;;;;9.88;6.30;;;;;;;16.43;100.00;93132.72;5091643;28;20048;-72
2022/09/03 03:26:03;;;;;;;9.38;6.50;;;;;;;16.28;100.00;93099.69;5091676;28;20105;-72
2022/09/03 03:28:32;;;;;;;9.85;5.70;;;;;;;16.48;100.00;93128.59;5090964;28;20048;-72
2022/09/03 03:30:59;;;;;;;8.70;5.90;;;;;;;16.48;100.00;93133.78;5088559;28;20415;-72
2022/09/03 03:33:26;;;;;;;8.10;6.10;;;;;;;16.43;100.00;93124.16;5090935;28;21025;-72
2022/09/03 03:35:53;;;;;;;8.63;6.22;;;;;;;16.48;100.00;93123.41;5091325;28;20044;-72
2022/09/03 03:38:20;;;;;;;9.23;6.10;;;;;;;16.50;100.00;93129.91;5091246;28;20046;-72
2022/09/03 03:40:47;;;;;;;7.55;5.10;;;;;;;16.52;100.00;93140.06;5091195;28;20459;-72
2022/09/03 03:43:15;;;;;;;8.55;6.28;;;;;;;16.52;100.00;93151.19;5091262;28;20415;-72
2022/09/03 03:45:42;;;;;;;9.55;6.65;;;;;;;16.49;100.00;93148.31;5091107;28;20044;-72
2022/09/03 03:48:08;;;;;;;8.10;6.25;;;;;;;16.49;100.00;93141.31;5091035;28;20491;-72
2022/09/03 03:50:38;;;;;;;7.38;5.43;;;;;;;16.46;100.00;93131.44;5090657;28;20044;-72
2022/09/03 03:53:05;;;;;;;8.38;6.25;;;;;;;16.50;100.00;93139.50;5091331;28;20461;-72
2022/09/03 03:55:31;;;;;;;10.82;5.70;;;;;;;16.49;100.00;93146.50;5090549;28;20040;-72
2022/09/03 03:57:59;;;;;;;8.27;5.72;;;;;;;16.52;100.00;93146.00;5090831;28;20044;-73
2022/09/03 04:00:27;;;;;;;9.32;5.90;;;;;;;16.51;100.00;93135.88;5090915;28;20048;-72
2022/09/03 04:02:53;;;;;;;9.88;5.90;;;;;;;16.52;100.00;93145.25;5090724;28;20056;-72
2022/09/03 04:05:20;;;;;;;8.73;6.63;;;;;;;16.56;100.00;93147.06;5090963;28;20048;-72
2022/09/03 04:07:47;;;;;;;9.80;6.10;;;;;;;16.51;100.00;93126.28;5090821;28;20553;-73
2022/09/03 04:10:14;;;;;;;12.43;6.03;;;;;;;16.60;100.00;93136.19;5090505;28;20056;-73
2022/09/03 04:12:41;;;;;;;8.15;6.00;;;;;;;16.61;100.00;93135.19;5090874;28;20188;-73
2022/09/03 04:15:08;;;;;;;7.13;5.25;;;;;;;16.65;100.00;93141.41;5090704;28;20048;-74
2022/09/03 04:17:36;;;;;;;8.90;5.53;;;;;;;16.64;100.00;93143.25;5090672;28;20117;-74
2022/09/03 04:20:04;;;;;;;7.55;5.65;;;;;;;16.67;100.00;93141.97;5090193;28;20492;-72
2022/09/03 04:22:30;;;;;;;7.63;5.20;;;;;;;16.66;100.00;93148.97;5084001;28;20044;-72
2022/09/03 04:24:57;;;;;;;10.00;5.45;;;;;;;16.67;100.00;93145.31;5090328;28;20040;-73
2022/09/03 04:27:24;;;;;;;8.60;5.72;;;;;;;16.70;100.00;93149.22;5087183;28;20393;-73
2022/09/03 04:29:50;;;;;;;8.90;6.22;;;;;;;16.72;100.00;93159.38;5089397;28;20085;-73
2022/09/03 04:35:03;;;;;;;8.50;6.22;;;;;;;16.72;100.00;93180.13;5090557;28;20058;-73
2022/09/03 04:37:29;;;;;;;8.70;5.75;;;;;;;16.70;100.00;93180.34;5090379;28;20040;-72
2022/09/03 04:39:56;;;;;;;10.43;5.82;;;;;;;16.65;100.00;93183.69;5086513;28;20553;-72
2022/09/03 04:42:23;;;;;;;7.40;5.40;;;;;;;16.57;100.00;93186.75;5090046;28;20098;-73
2022/09/03 04:44:50;;;;;;;7.30;5.38;;;;;;;16.61;100.00;93192.22;5089852;28;20044;-72
2022/09/03 04:47:16;;;;;;;10.13;6.13;;;;;;;16.56;100.00;93198.16;5090194;28;20101;-72
2022/09/03 04:49:43;;;;;;;7.40;5.55;;;;;;;16.49;100.00;93198.38;5090191;28;20048;-72
2022/09/03 04:52:14;;;;;;;8.38;5.68;;;;;;;16.40;100.00;93194.66;5089750;28;20097;-72
2022/09/03 04:54:41;;;;;;;7.72;5.00;;;;;;;16.22;100.00;93204.34;5089820;28;20054;-72
2022/09/03 04:57:07;;;;;;;7.70;4.90;;;;;;;16.01;100.00;93198.16;5089777;28;20047;-72
2022/09/03 04:59:34;;;;;;;5.90;4.90;;;;;;;16.05;100.00;93208.84;5089833;28;20330;-72
2022/09/03 05:02:01;;;;;;;7.00;4.93;;;;;;;16.10;100.00;93211.47;5089061;28;20090;-73
2022/09/03 05:04:27;;;;;;;6.47;4.53;;;;;;;16.13;100.00;93209.19;5089549;28;20522;-72
2022/09/03 05:06:54;;;;;;;6.32;4.43;;;;;;;15.90;100.00;93210.19;5089475;28;20047;-72
2022/09/03 05:09:22;;;;;;;7.15;4.75;;;;;;;15.78;100.00;93205.13;5089062;28;20048;-72
2022/09/03 05:11:49;;;;;;;5.55;4.28;;;;;;;15.79;100.00;93206.72;5090022;28;20093;-72
2022/09/03 05:14:19;;;;;;;6.55;4.00;;;;;;;15.72;100.00;93211.28;5085402;28;20044;-72
2022/09/03 05:16:46;;;;;;;6.07;4.35;;;;;;;15.79;100.00;93213.69;5084230;28;20063;-72
2022/09/03 05:19:12;;;;;;;5.90;4.82;;;;;;;15.77;100.00;93209.56;5089360;28;20488;-72
2022/09/03 05:21:45;;;;;;;8.25;5.20;;;;;;;15.73;100.00;93200.69;5089591;28;20048;-73
2022/09/03 05:24:13;;;;;;;6.25;4.68;;;;;;;15.62;100.00;93212.75;5088943;28;20051;-73
2022/09/03 05:26:41;;;;;;;6.03;4.78;;;;;;;15.60;100.00;93207.00;5089201;28;20471;-73
2022/09/03 05:29:08;;;;;;;6.43;5.13;;;;;;;15.63;100.00;93213.50;5089495;28;20048;-73
2022/09/03 05:31:37;;;;;;;5.97;4.68;;;;;;;15.79;100.00;93208.53;5086392;28;20097;-73
2022/09/03 05:34:05;;;;;;;7.30;5.07;;;;;;;15.91;100.00;93219.53;5089323;28;20131;-73
2022/09/03 05:36:34;;;;;;;7.47;5.65;;;;;;;16.08;100.00;93222.09;5089530;28;20047;-73
2022/09/03 05:39:01;;;;;;;8.38;5.80;;;;;;;16.18;100.00;93224.00;5089190;28;20567;-73
2022/09/03 05:41:28;;;;;;;7.50;5.95;;;;;;;16.27;100.00;93225.13;5089487;28;20044;-73
2022/09/03 05:43:57;;;;;;;8.07;5.10;;;;;;;16.30;100.00;93218.69;5088809;28;20055;-73
2022/09/03 05:46:30;;;;;;;6.55;5.03;;;;;;;16.46;100.00;93221.38;5089246;28;20416;-73
2022/09/03 05:48:57;;;;;;;7.90;5.18;;;;;;;16.59;100.00;93222.81;5089115;28;20075;-72
2022/09/03 05:51:24;;;;;;;6.13;4.72;;;;;;;16.77;100.00;93221.66;5089117;28;20048;-73
2022/09/03 05:53:52;;;;;;;5.95;4.47;;;;;;;16.83;100.00;93226.66;5089385;28;20052;-73
2022/09/03 05:56:21;;;;;;;6.05;4.80;;;;;;;16.48;100.00;93221.94;5089028;28;20048;-75
2022/09/03 05:58:49;;;;;;;6.32;4.50;;;;;;;16.63;100.00;93214.31;5087596;28;20408;-72
2022/09/03 06:01:19;;;;;;;6.63;4.75;;;;;;;16.77;100.00;93226.84;5086234;28;20534;-73
2022/09/03 06:03:48;;;;;;;5.18;4.13;;;;;;;16.78;100.00;93225.81;5087473;28;20043;-72
2022/09/03 06:06:15;;;;;;;6.82;4.63;;;;;;;16.96;100.00;93224.66;5088964;28;20105;-72
2022/09/03 06:08:43;;;;;;;4.93;3.97;;;;;;;16.94;100.00;93231.91;5088932;28;20411;-72
2022/09/03 06:11:11;;;;;;;10.50;5.50;;;;;;;17.12;100.00;93228.16;5088631;28;20590;-73
2022/09/03 06:13:38;;;;;;;6.55;4.60;;;;;;;17.26;100.00;93227.72;5088609;28;20101;-73
2022/09/03 06:16:06;;;;;;;9.68;5.13;;;;;;;17.43;100.00;93233.53;5087707;28;20048;-72
2022/09/03 06:18:35;;;;;;;6.65;4.40;;;;;;;17.52;100.00;93225.25;5089070;28;20549;-73
2022/09/03 06:21:04;;;;;;;6.85;4.13;;;;;;;17.48;100.00;93228.38;5092382;28;20040;-72
2022/09/03 06:23:32;;;;;;;6.72;4.53;;;;;;;17.56;100.00;93234.13;5092943;28;20048;-73
2022/09/03 06:26:05;;;;;;;5.18;3.70;;;;;;;17.63;100.00;93235.47;5092531;28;20044;-73
2022/09/03 06:28:33;;;;;;;5.85;3.65;;;;;;;17.75;100.00;93239.66;5092547;28;20109;-73
2022/09/03 06:31:01;;;;;;;7.30;3.92;;;;;;;17.72;100.00;93237.56;5091521;28;20421;-73
2022/09/03 06:33:29;;;;;;;5.40;3.80;;;;;;;17.89;100.00;93234.78;5089180;28;20222;-72
2022/09/03 06:35:58;;;;;;;4.72;3.42;;;;;;;18.07;100.00;93236.19;5090726;28;20051;-72
2022/09/03 06:38:26;;;;;;;4.70;3.58;;;;;;;18.02;100.00;93236.88;5092808;28;20496;-72
2022/09/03 06:40:54;;;;;;;4.93;3.38;;;;;;;18.11;100.00;93228.66;5092488;28;20109;-72
2022/09/03 06:43:22;;;;;;;5.28;3.60;;;;;;;18.29;100.00;93237.78;5092332;28;20040;-72
2022/09/03 06:45:56;;;;;;;7.00;3.78;;;;;;;18.38;100.00;93245.88;5092835;28;20074;-73
2022/09/03 06:48:23;;;;;;;4.38;3.33;;;;;;;18.44;100.00;93252.63;5092532;28;20093;-72
2022/09/03 06:50:55;;;;;;;4.80;3.10;;;;;;;18.41;100.00;93251.34;5092287;28;20121;-72
2022/09/03 06:53:25;;;;;;;5.93;3.63;;;;;;;18.55;100.00;93245.63;5092250;28;20468;-72
2022/09/03 06:55:56;;;;;;;4.53;3.40;;;;;;;17.60;100.00;93253.38;5092406;28;20048;-72
2022/09/03 06:58:23;;;;;;;4.35;3.33;;;;;;;17.30;100.00;93247.75;5092479;28;20048;-72
2022/09/03 07:00:51;;;;;;;6.60;3.80;;;;;;;17.59;100.00;93254.41;5092259;28;20048;-72
2022/09/03 07:03:18;;;;;;;5.97;3.45;;;;;;;17.45;100.00;93259.25;5092117;28;20044;-72
2022/09/03 07:05:45;;;;;;;6.60;4.35;;;;;;;17.59;100.00;93257.75;5092029;28;20449;-72
2022/09/03 07:08:12;;;;;;;6.45;3.80;;;;;;;17.66;100.00;93246.38;5092107;28;20055;-72
2022/09/03 07:10:41;;;;;;;6.88;4.07;;;;;;;17.80;100.00;93257.88;5091683;28;20105;-72
2022/09/03 07:13:08;;;;;;;6.47;4.47;;;;;;;17.89;100.00;93260.75;5091813;28;20559;-72
2022/09/03 07:15:35;;;;;;;4.68;3.67;;;;;;;17.93;100.00;93261.81;5091567;28;20048;-72
2022/09/03 07:18:02;;;;;;;5.65;4.30;;;;;;;17.94;100.00;93273.78;5082342;28;20085;-72
2022/09/03 07:20:28;;;;;;;6.20;4.07;;;;;;;17.30;100.00;93283.28;5091745;28;20093;-72
2022/09/03 07:22:56;;;;;;;6.47;4.93;;;;;;;16.98;100.00;93278.91;5091472;28;20047;-72
2022/09/03 07:25:23;;;;;;;6.55;4.45;;;;;;;16.94;100.00;93281.22;5091666;28;20130;-72
2022/09/03 07:27:52;;;;;;;8.52;5.25;;;;;;;16.75;100.00;93275.59;5091565;28;20044;-72
2022/09/03 07:30:19;;;;;;;6.50;5.20;;;;;;;16.78;100.00;93268.09;5084424;28;20059;-72
2022/09/03 07:32:48;;;;;;;6.32;4.85;;;;;;;17.04;100.00;93288.31;5088092;28;20484;-72
2022/09/03 07:35:15;;;;;;;7.65;5.15;;;;;;;16.88;100.00;93282.97;5091253;28;20513;-72
2022/09/03 07:37:42;;;;;;;7.03;5.38;;;;;;;17.15;100.00;93291.75;5091357;28;20040;-72
2022/09/03 07:40:10;;;;;;;7.30;5.68;;;;;;;17.19;100.00;93283.25;5091228;28;20568;-72
2022/09/03 07:42:37;;;;;;;6.47;5.22;;;;;;;17.16;100.00;93291.53;5091268;28;20048;-72
2022/09/03 07:45:08;;;;;;;6.65;5.00;;;;;;;17.15;100.00;93294.34;5091433;28;20043;-72
2022/09/03 07:47:35;;;;;;;6.40;5.40;;;;;;;17.25;100.00;93296.25;5090874;28;20423;-72
2022/09/03 07:50:03;;;;;;;6.50;5.38;;;;;;;17.37;100.00;93302.06;5091241;28;20142;-72
2022/09/03 07:52:30;;;;;;;7.35;5.50;;;;;;;17.54;100.00;93303.72;5091186;28;20452;-72
2022/09/03 07:54:56;;;;;;;8.55;5.70;;;;;;;17.80;100.00;93304.63;5091133;28;20090;-72
2022/09/03 07:57:23;;;;;;;6.32;4.95;;;;;;;17.92;100.00;93304.44;5091125;28;20499;-72
2022/09/03 07:59:50;;;;;;;7.45;5.22;;;;;;;18.18;100.00;93309.00;5091096;28;20109;-72
2022/09/03 08:02:18;;;;;;;7.43;5.30;;;;;;;18.41;100.00;93310.34;5090596;28;20044;-72
2022/09/03 08:04:45;;;;;;;6.25;4.50;;;;;;;18.67;100.00;93313.03;5090983;28;20047;-72
2022/09/03 08:07:12;;;;;;;5.78;4.60;;;;;;;18.86;100.00;93320.34;5090815;28;20602;-72
2022/09/03 08:09:39;;;;;;;5.68;4.47;;;;;;;18.36;100.00;93318.13;5090385;28;20044;-72
2022/09/03 08:12:06;;;;;;;5.50;4.30;;;;;;;18.56;100.00;93314.81;5090976;28;20040;-72
2022/09/03 08:14:32;;;;;;;5.75;4.20;;;;;;;18.66;100.00;93320.03;5090475;28;20044;-72
2022/09/03 08:16:59;;;;;;;5.45;4.32;;;;;;;17.77;100.00;93316.31;5088702;28;20113;-72
2022/09/03 08:19:27;;;;;;;5.65;4.47;;;;;;;17.92;100.00;93308.84;5090650;28;20040;-72
2022/09/03 08:21:54;;;;;;;5.72;4.30;;;;;;;17.99;100.00;93302.38;5089691;28;20609;-72
2022/09/03 08:24:23;;;;;;;5.45;4.05;;;;;;;17.99;100.00;93299.78;5090708;28;20084;-72
2022/09/03 08:26:50;;;;;;;5.07;4.47;;;;;;;18.13;100.00;93300.13;5085065;28;20041;-72
2022/09/03 08:29:17;;;;;;;4.90;3.90;;;;;;;18.74;100.00;93313.56;5090419;28;20093;-72
2022/09/03 08:31:44;;;;;;;6.45;4.18;;;;;;;19.31;100.00;93305.78;5087957;28;20063;-72
2022/09/03 08:34:13;;;;;;;5.28;4.68;;;;;;;19.85;100.00;93315.88;5090451;28;20056;-72
2022/09/03 08:36:41;;;;;;;8.20;4.40;;;;;;;20.22;100.00;93308.75;5090622;28;20048;-72
2022/09/03 08:39:09;;;;;;;5.55;4.57;;;;;;;20.49;100.00;93318.00;5090242;28;20047;-72
2022/09/03 08:41:59;;;;;;;6.07;4.43;;;;;;;20.33;100.00;93296.44;5090063;28;20554;-72
2022/09/03 08:44:30;;;;;;;5.68;4.50;;;;;;;20.74;100.00;93309.25;5087309;28;20479;-72
2022/09/03 08:47:01;;;;;;;6.13;3.97;;;;;;;20.98;100.00;93311.25;5090287;28;20051;-72
2022/09/03 08:49:33;;;;;;;5.45;4.10;;;;;;;21.25;99.67;93322.25;5088521;28;20109;-72
2022/09/03 08:52:07;;;;;;;5.43;3.83;;;;;;;21.31;99.37;93303.66;5088697;28;20048;-72
2022/09/03 08:54:36;;;;;;;6.32;4.60;;;;;;;21.63;97.82;93314.63;5088283;28;20434;-72
2022/09/03 08:57:04;;;;;;;4.28;3.47;;;;;;;21.00;95.48;93321.38;5088394;28;20068;-72
2022/09/03 08:59:32;;;;;;;5.05;3.50;;;;;;;20.76;98.25;93312.41;5088211;28;20504;-72
2022/09/03 09:02:12;;;;;;;4.72;4.00;;;;;;;21.30;99.14;93311.78;5087927;28;20771;-72
2022/09/03 09:04:51;;;;;;;8.10;5.00;;;;;;;21.48;99.31;93305.84;5088307;28;20068;-72
2022/09/03 09:07:27;;;;;;;4.70;3.95;;;;;;;21.16;96.25;93312.38;5089130;28;20054;-72
2022/09/03 09:10:05;;;;;;;4.60;3.92;;;;;;;20.02;100.00;93313.00;5089772;28;20092;-72
2022/09/03 09:12:41;;;;;;;5.32;3.85;;;;;;;19.72;100.00;93304.19;5089503;28;20048;-72
2022/09/03 09:15:13;;;;;;;5.45;4.32;;;;;;;19.65;100.00;93308.88;5087712;28;20071;-71
2022/09/03 09:18:01;;;;;;;6.05;4.68;;;;;;;19.78;100.00;93316.16;5085983;28;20488;-72
2022/09/03 09:20:36;;;;;;;5.85;4.28;;;;;;;20.13;100.00;93308.50;5075570;28;20450;-72
2022/09/03 09:23:06;;;;;;;4.80;3.73;;;;;;;19.86;100.00;93317.44;5089596;28;20052;-72
2022/09/03 09:25:38;;;;;;;7.43;5.00;;;;;;;20.28;100.00;93308.44;5089183;28;20083;-72
2022/09/03 09:28:16;;;;;;;8.10;4.18;;;;;;;20.57;100.00;93314.84;5089619;28;20093;-72
2022/09/03 09:30:46;;;;;;;4.82;3.28;;;;;;;20.69;99.18;93320.50;5084245;28;20048;-72
2022/09/03 09:33:12;;;;;;;7.35;3.83;;;;;;;21.13;100.00;93314.78;5089635;28;20060;-72
2022/09/03 09:35:41;;;;;;;4.75;3.63;;;;;;;21.43;97.63;93329.41;5089468;28;20108;-72
2022/09/03 09:38:10;;;;;;;4.95;3.60;;;;;;;21.26;94.79;93311.56;5089563;28;20048;-72
2022/09/03 09:40:40;;;;;;;5.13;4.10;;;;;;;21.15;99.40;93318.66;5089093;28;20474;-72
2022/09/03 09:43:10;;;;;;;5.70;4.13;;;;;;;21.71;98.08;93326.34;5089287;28;20054;-72
2022/09/03 09:45:39;;;;;;;4.78;3.28;;;;;;;21.65;97.07;93330.81;5089329;28;20055;-72
2022/09/03 09:48:17;;;;;;;5.30;3.65;;;;;;;20.34;100.00;93329.31;5089127;28;20132;-72
2022/09/03 09:50:44;;;;;;;5.15;3.78;;;;;;;20.73;100.00;93315.53;5089022;28;20093;-72
2022/09/03 09:53:16;;;;;;;4.05;3.13;;;;;;;21.23;97.38;93332.97;5089353;28;20047;-72
2022/09/03 09:55:54;;;;;;;4.22;2.85;;;;;;;21.36;94.66;93336.81;5088996;28;20055;-72
2022/09/03 09:58:23;;;;;;;3.42;2.55;;;;;;;21.23;97.87;93330.38;5075460;28;20052;-71
2022/09/03 10:01:03;;;;;;;3.40;2.13;;;;;;;21.27;97.11;93328.78;5089098;28;20131;-72
2022/09/03 10:03:33;;;;;;;3.20;2.28;;;;;;;21.74;98.46;93329.19;5076103;28;20091;-72
2022/09/03 10:09:06;;;;;;;4.07;2.83;;;;;;;21.92;91.70;93332.13;5078323;28;20059;-72
2022/09/03 10:11:35;;;;;;;4.53;3.10;;;;;;;22.36;92.47;93327.72;5088796;28;20043;-72
2022/09/03 10:14:05;;;;;;;4.85;3.00;;;;;;;22.77;93.73;93321.19;5088930;28;20044;-72
2022/09/03 10:16:39;;;;;;;3.30;2.30;;;;;;;22.72;86.10;93333.59;5085744;28;20036;-72
2022/09/03 10:19:11;;;;;;;4.43;2.30;;;;;;;22.82;87.36;93334.22;5088947;28;20040;-72
2022/09/03 10:21:45;;;;;;;4.28;2.17;;;;;;;22.82;82.80;93336.09;5088914;28;20051;-72
2022/09/03 10:24:39;;;;;;;6.65;2.80;;;;;;;22.99;86.50;93332.94;5088954;28;20040;-72
2022/09/03 10:27:09;;;;;;;3.92;2.78;;;;;;;22.97;82.16;93324.59;5088992;28;20097;-72
2022/09/03 10:29:39;;;;;;;3.67;1.80;;;;;;;22.41;84.62;93327.66;5088251;28;20151;-72
2022/09/03 10:32:21;;;;;;;2.75;1.92;;;;;;;21.83;81.41;93336.41;5087056;28;20052;-72
2022/09/03 10:34:58;;;;;;;3.30;2.22;;;;;;;22.25;84.77;93327.06;5088887;28;20083;-72
2022/09/03 10:37:34;;;;;;;3.28;2.53;;;;;;;22.41;85.94;93332.13;5088523;28;20048;-72
2022/09/03 10:40:23;;;;;;;4.38;3.05;;;;;;;22.83;83.78;93330.53;5088579;28;20090;-72
2022/09/03 10:43:04;;;;;;;4.07;3.05;;;;;;;23.04;85.95;93327.63;5088543;28;20545;-72
2022/09/03 10:45:39;;;;;;;3.72;2.67;;;;;;;23.27;87.25;93322.56;5088634;28;20044;-72
2022/09/03 10:48:31;;;;;;;4.35;2.30;;;;;;;23.40;80.45;93328.94;5089015;28;20044;-72
2022/09/03 10:51:03;;;;;;;4.00;2.67;;;;;;;23.69;81.22;93327.94;5075944;28;20503;-72
2022/09/03 10:53:48;;;;;;;4.30;2.92;;;;;;;24.21;82.18;93326.25;5089113;28;20141;-72
2022/09/03 10:56:17;;;;;;;;;;;;;;;23.99;74.09;93338.19;5088695;28;20135;-72
2022/09/03 10:59:11;;;;;;;6.88;2.55;;;;;;;23.07;77.89;93328.91;5088781;28;20337;-72
2022/09/03 11:01:45;;;;;;;3.83;2.58;;;;;;;23.69;79.64;93324.56;5081786;28;20484;-72
2022/09/03 11:04:25;;;;;;;3.38;2.10;;;;;;;23.99;76.43;93319.81;5088848;28;20457;-72
2022/09/03 11:06:55;;;;;;;2.80;1.83;;;;;;;23.98;74.31;93326.91;5077910;28;20404;-72
2022/09/03 11:09:27;;;;;;;2.95;1.98;;;;;;;22.95;76.87;93324.09;5092015;28;20549;-72
2022/09/03 11:12:00;;;;;;;3.63;2.20;;;;;;;23.46;77.95;93321.75;5092073;28;20044;-72
2022/09/03 11:14:36;;;;;;;3.08;2.17;;;;;;;23.50;78.07;93314.88;5091816;28;20047;-72
2022/09/03 11:17:10;;;;;;;3.50;2.10;;;;;;;23.79;75.94;93324.34;5091710;28;20484;-72
2022/09/03 11:19:46;;;;;;;4.22;2.63;;;;;;;24.40;77.15;93318.28;5090780;28;20090;-72
2022/09/03 11:22:16;;;;;;;3.80;2.40;;;;;;;24.35;75.64;93323.63;5092283;28;20076;-72
2022/09/03 11:24:45;;;;;;;3.05;1.75;;;;;;;24.36;75.29;93327.78;5091627;28;20123;-72
2022/09/03 11:27:26;;;;;;;4.07;2.30;;;;;;;24.57;71.29;93322.91;5091736;28;20044;-72
2022/09/03 11:29:59;;;;;;;3.30;2.17;;;;;;;24.81;74.87;93309.53;5090407;28;20340;-72
2022/09/03 11:32:47;;;;;;;3.40;2.30;;;;;;;25.01;73.44;93318.06;5091394;28;20044;-72
2022/09/03 11:35:16;;;;;;;3.75;2.42;;;;;;;25.12;70.87;93308.06;5091246;28;20056;-72
2022/09/03 11:37:53;;;;;;;2.97;1.92;;;;;;;25.46;70.33;93309.34;5091273;28;20047;-72
2022/09/03 11:40:22;;;;;;;3.03;1.70;;;;;;;24.77;68.36;93313.03;5091422;28;20062;-72
2022/09/03 11:42:50;;;;;;;3.05;1.92;;;;;;;25.14;70.53;93305.94;5091309;28;20492;-72
2022/09/03 11:45:24;;;;;;;2.97;1.80;;;;;;;25.40;71.00;93310.56;5091475;28;20048;-72
2022/09/03 11:47:52;;;;;;;3.40;1.95;;;;;;;25.41;72.99;93312.09;5091172;28;20533;-72
2022/09/03 11:50:24;;;;;;;2.67;1.73;;;;;;;23.98;70.62;93308.53;5091479;28;20086;-72